Time;durP1;ratioP1;P1;durP2;ratioP2;P2;SDS_P1;SDS_P2;PMS_P1;PMS_P2;Temp;Humidity;BMP_temperature;BMP_pressure;BME280_temperature;BME280_humidity;BME280_pressure;Samples;Min_cycle;Max_cycle;Signal;HPM_P1;HPM_P2
2021/07/04 00:01:54;;;;;;;11.93;7.65;;;;;;;23.98;72.60;100400.56;5072204;28;20477;-68
2021/07/04 00:04:39;;;;;;;12.80;7.93;;;;;;;24.04;72.21;100396.13;5073772;28;20398;-68
2021/07/04 00:07:24;;;;;;;11.00;7.70;;;;;;;23.30;74.55;100406.75;5075913;28;20055;-68
2021/07/04 00:10:11;;;;;;;11.88;8.75;;;;;;;23.06;75.86;100407.69;5058751;28;20056;-68
2021/07/04 00:12:58;;;;;;;10.98;9.02;;;;;;;22.83;77.93;100408.28;5065634;28;20417;-67
2021/07/04 00:15:45;;;;;;;12.23;9.45;;;;;;;22.53;78.87;100396.94;5071441;28;20055;-67
2021/07/04 00:18:32;;;;;;;12.15;9.45;;;;;;;22.27;80.65;100387.16;5072442;28;20048;-67
2021/07/04 00:21:16;;;;;;;17.92;9.93;;;;;;;22.03;82.09;100383.28;5053853;28;20051;-67
2021/07/04 00:24:03;;;;;;;11.55;9.50;;;;;;;21.99;82.18;100379.72;5075317;28;20552;-67
2021/07/04 00:26:48;;;;;;;19.00;9.93;;;;;;;22.06;81.78;100385.25;5074636;28;20048;-67
2021/07/04 00:29:33;;;;;;;16.13;10.35;;;;;;;21.95;82.58;100384.50;5068192;28;20044;-67
2021/07/04 00:32:18;;;;;;;18.95;12.32;;;;;;;21.86;82.88;100386.06;5050940;28;20049;-67
2021/07/04 00:35:04;;;;;;;18.05;12.40;;;;;;;21.83;83.20;100387.69;5056264;28;20048;-67
2021/07/04 00:37:50;;;;;;;14.95;12.30;;;;;;;21.74;83.55;100384.50;5053709;28;20478;-68
2021/07/04 00:40:36;;;;;;;11.40;10.00;;;;;;;21.86;82.85;100383.31;5062292;28;20049;-68
2021/07/04 00:43:22;;;;;;;18.48;11.70;;;;;;;21.98;81.32;100392.00;5075625;28;20068;-68
2021/07/04 00:46:06;;;;;;;16.80;11.55;;;;;;;21.77;82.00;100390.06;5052936;28;20045;-67
2021/07/04 00:48:53;;;;;;;14.95;11.68;;;;;;;21.81;82.42;100392.03;5051064;28;20052;-67
2021/07/04 00:51:38;;;;;;;19.05;12.77;;;;;;;21.72;81.43;100375.84;5056109;28;20052;-67
2021/07/04 00:54:23;;;;;;;14.93;11.60;;;;;;;21.67;81.66;100379.81;5057944;28;20044;-67
2021/07/04 00:57:09;;;;;;;18.10;12.60;;;;;;;21.52;82.54;100377.44;5070752;28;20063;-67
2021/07/04 00:59:55;;;;;;;16.60;13.13;;;;;;;21.47;83.89;100375.88;5074463;28;20048;-67
2021/07/04 01:02:40;;;;;;;16.77;12.82;;;;;;;21.47;83.81;100381.41;5073814;28;20040;-67
2021/07/04 01:05:29;;;;;;;15.20;10.30;;;;;;;21.87;81.41;100380.16;5073406;28;20059;-67
2021/07/04 01:08:14;;;;;;;14.07;12.50;;;;;;;22.15;79.55;100382.84;5073123;28;20040;-67
2021/07/04 01:11:01;;;;;;;11.10;9.80;;;;;;;22.33;78.41;100381.97;5074204;28;20059;-68
2021/07/04 01:13:50;;;;;;;11.55;10.00;;;;;;;22.53;77.11;100389.41;5070316;28;20047;-67
2021/07/04 01:16:36;;;;;;;15.27;10.05;;;;;;;22.14;79.96;100392.38;5055732;28;20045;-67
2021/07/04 01:19:23;;;;;;;15.63;10.50;;;;;;;22.29;79.39;100381.22;5053690;28;20044;-67
2021/07/04 01:22:09;;;;;;;16.10;11.70;;;;;;;22.24;79.18;100387.19;5051404;28;20049;-68
2021/07/04 01:24:59;;;;;;;14.38;11.73;;;;;;;22.17;80.17;100386.00;5066932;28;20524;-66
2021/07/04 01:27:43;;;;;;;12.63;10.98;;;;;;;22.35;79.09;100379.63;5076474;28;20036;-66
2021/07/04 01:30:29;;;;;;;24.98;12.38;;;;;;;21.96;80.14;100386.06;5080683;28;20059;-67
2021/07/04 01:33:15;;;;;;;14.27;12.02;;;;;;;21.75;81.61;100373.03;5061538;28;20041;-67
2021/07/04 01:36:00;;;;;;;18.30;13.68;;;;;;;21.49;82.76;100370.72;5068688;28;20036;-67
2021/07/04 01:38:50;;;;;;;18.48;13.45;;;;;;;21.98;81.31;100378.16;5073295;28;20406;-66
2021/07/04 01:41:36;;;;;;;18.27;14.65;;;;;;;21.82;81.27;100375.03;5080278;28;20052;-67
2021/07/04 01:44:25;;;;;;;15.70;12.52;;;;;;;21.74;81.79;100373.44;5075918;28;20051;-67
2021/07/04 01:47:10;;;;;;;18.42;14.30;;;;;;;21.84;82.53;100363.56;5058465;28;20055;-66
2021/07/04 01:49:59;;;;;;;17.10;13.90;;;;;;;22.01;80.86;100371.03;5057457;28;20048;-66
2021/07/04 01:52:45;;;;;;;13.35;11.98;;;;;;;21.89;81.46;100363.13;5060022;28;20036;-67
2021/07/04 01:55:30;;;;;;;14.80;13.20;;;;;;;21.90;80.78;100361.94;5065668;28;20047;-66
2021/07/04 01:58:16;;;;;;;10.77;9.27;;;;;;;22.13;80.46;100363.09;5076007;28;20052;-67
2021/07/04 02:01:09;;;;;;;17.83;11.95;;;;;;;22.05;80.57;100367.06;5065051;28;20059;-67
2021/07/04 02:03:55;;;;;;;18.70;12.65;;;;;;;22.21;78.56;100368.56;5063479;28;20040;-67
2021/07/04 02:06:40;;;;;;;15.70;12.82;;;;;;;21.75;80.53;100355.66;5060146;28;20056;-67
2021/07/04 02:09:26;;;;;;;14.82;12.45;;;;;;;21.64;80.97;100357.66;5059619;28;20041;-67
2021/07/04 02:12:14;;;;;;;17.92;13.55;;;;;;;21.74;80.14;100356.81;5060815;28;20049;-67
2021/07/04 02:14:59;;;;;;;16.17;13.63;;;;;;;21.77;80.46;100359.59;5070641;28;20538;-67
2021/07/04 02:17:53;;;;;;;19.70;12.93;;;;;;;22.00;78.36;100364.69;5073432;28;20039;-69
2021/07/04 02:20:58;;;;;;;16.92;13.80;;;;;;;21.97;79.31;100354.44;5077913;28;20052;-67
2021/07/04 02:23:51;;;;;;;15.52;13.07;;;;;;;21.94;79.66;100355.22;5080419;28;20047;-68
2021/07/04 02:26:53;;;;;;;19.70;12.68;;;;;;;22.02;79.17;100356.78;5072630;28;20048;-68
2021/07/04 02:29:49;;;;;;;15.55;12.73;;;;;;;21.99;79.86;100345.72;5079300;28;20059;-68
2021/07/04 02:32:36;;;;;;;12.25;9.70;;;;;;;22.63;76.30;100350.94;5059499;28;20037;-67
2021/07/04 02:35:23;;;;;;;11.35;9.45;;;;;;;23.13;73.00;100345.84;5082617;28;20071;-67
2021/07/04 02:38:09;;;;;;;17.85;9.70;;;;;;;22.99;72.81;100347.53;5073955;28;20047;-67
2021/07/04 02:40:55;;;;;;;10.25;7.68;;;;;;;23.20;72.22;100345.78;5079256;28;20060;-68
2021/07/04 02:43:41;;;;;;;9.20;7.47;;;;;;;23.33;71.01;100349.63;5078075;28;20047;-69
2021/07/04 02:46:31;;;;;;;11.07;10.07;;;;;;;23.12;71.35;100347.81;5064714;28;20048;-68
2021/07/04 02:49:17;;;;;;;16.25;11.43;;;;;;;22.85;72.76;100346.88;5063874;28;20091;-67
2021/07/04 02:52:06;;;;;;;15.48;11.60;;;;;;;22.90;72.97;100343.66;5069170;28;20493;-69
2021/07/04 02:54:52;;;;;;;13.25;10.90;;;;;;;22.72;73.26;100349.31;5075994;28;20048;-68
2021/07/04 02:57:48;;;;;;;14.80;12.30;;;;;;;22.46;74.73;100355.38;5074728;28;20493;-67
2021/07/04 03:00:38;;;;;;;9.88;7.45;;;;;;;22.71;73.89;100358.81;5078165;28;20049;-67
2021/07/04 03:03:23;;;;;;;10.48;8.32;;;;;;;23.03;71.84;100350.28;5076083;28;20051;-68
2021/07/04 03:06:09;;;;;;;8.90;7.45;;;;;;;23.49;70.08;100347.13;5059759;28;20048;-67
2021/07/04 03:08:55;;;;;;;11.20;7.30;;;;;;;23.84;68.01;100348.72;5052032;28;20059;-66
2021/07/04 03:11:41;;;;;;;7.53;6.78;;;;;;;23.88;67.42;100355.03;5059915;28;20052;-66
2021/07/04 03:14:26;;;;;;;9.55;7.15;;;;;;;23.73;67.92;100357.19;5072977;28;20051;-67
2021/07/04 03:17:11;;;;;;;10.93;7.25;;;;;;;23.12;70.07;100356.16;5057676;28;20060;-67
2021/07/04 03:19:56;;;;;;;9.30;7.30;;;;;;;22.71;72.13;100361.59;5058480;28;20040;-67
2021/07/04 03:22:43;;;;;;;10.00;8.43;;;;;;;22.59;72.63;100364.84;5058605;28;20052;-67
2021/07/04 03:25:28;;;;;;;10.90;6.53;;;;;;;22.77;72.42;100364.72;5059336;28;20056;-68
2021/07/04 03:28:13;;;;;;;7.30;5.88;;;;;;;23.03;70.80;100359.41;5073674;28;20055;-68
2021/07/04 03:31:00;;;;;;;8.40;6.43;;;;;;;23.37;68.98;100367.03;5072538;28;20052;-68
2021/07/04 03:33:45;;;;;;;8.00;5.75;;;;;;;23.56;68.01;100372.06;5058081;28;20048;-68
2021/07/04 03:36:30;;;;;;;6.68;5.85;;;;;;;23.60;68.09;100372.00;5062423;28;20047;-69
2021/07/04 03:39:15;;;;;;;7.97;6.38;;;;;;;23.75;67.26;100381.75;5077883;28;20048;-67
2021/07/04 03:42:03;;;;;;;5.47;4.90;;;;;;;23.38;68.63;100374.16;5079147;28;20055;-68
2021/07/04 03:44:51;;;;;;;14.13;5.35;;;;;;;23.43;68.56;100370.94;5076861;28;20043;-69
2021/07/04 03:47:45;;;;;;;15.60;7.35;;;;;;;22.76;69.83;100377.81;5074268;28;20047;-68
2021/07/04 03:50:31;;;;;;;8.30;5.22;;;;;;;22.52;72.57;100381.50;5078454;28;20437;-67
2021/07/04 03:53:16;;;;;;;6.97;6.28;;;;;;;22.32;73.47;100378.44;5058193;28;20060;-68
2021/07/04 03:56:04;;;;;;;18.67;6.65;;;;;;;22.33;72.93;100379.22;5052115;28;20044;-67
2021/07/04 03:58:50;;;;;;;10.52;7.00;;;;;;;22.39;73.66;100383.16;5076376;28;20119;-67
2021/07/04 04:01:36;;;;;;;11.57;5.75;;;;;;;22.65;71.95;100379.84;5064020;28;20067;-66
2021/07/04 04:04:22;;;;;;;7.30;6.30;;;;;;;22.42;73.06;100383.13;5077873;28;20051;-67
2021/07/04 04:07:07;;;;;;;8.13;6.13;;;;;;;22.58;72.10;100388.19;5072833;28;20427;-67
2021/07/04 04:09:54;;;;;;;6.70;5.03;;;;;;;22.80;71.50;100384.13;5057741;28;20052;-67
2021/07/04 04:12:42;;;;;;;6.32;4.85;;;;;;;22.89;70.86;100387.25;5057509;28;20048;-67
2021/07/04 04:15:27;;;;;;;7.95;4.93;;;;;;;22.55;71.94;100381.47;5052409;28;20052;-67
2021/07/04 04:18:14;;;;;;;8.25;5.43;;;;;;;22.82;70.82;100387.28;5065263;28;20039;-67
2021/07/04 04:21:01;;;;;;;5.47;3.78;;;;;;;23.18;69.67;100387.00;5071947;28;20059;-67
2021/07/04 04:23:46;;;;;;;7.60;4.88;;;;;;;23.47;67.79;100391.16;5071036;28;20047;-67
2021/07/04 04:26:34;;;;;;;5.15;4.18;;;;;;;23.82;66.37;100376.91;5077298;28;20051;-67
2021/07/04 04:29:20;;;;;;;7.50;5.43;;;;;;;23.30;68.75;100379.00;5053567;28;20052;-68
2021/07/04 04:32:05;;;;;;;4.90;4.35;;;;;;;23.29;68.46;100385.75;5052305;28;20067;-68
2021/07/04 04:34:50;;;;;;;5.55;4.90;;;;;;;23.28;68.46;100378.59;5057243;28;20048;-69
2021/07/04 04:37:37;;;;;;;9.73;5.57;;;;;;;23.06;69.71;100373.66;5055434;28;20521;-68
2021/07/04 04:40:22;;;;;;;11.70;6.22;;;;;;;22.86;70.38;100376.94;5058324;28;20052;-69
2021/07/04 04:43:07;;;;;;;9.63;5.35;;;;;;;22.83;70.29;100388.06;5058241;28;20052;-68
2021/07/04 04:45:52;;;;;;;8.75;5.60;;;;;;;22.69;71.63;100383.38;5051809;28;20060;-66
2021/07/04 04:48:38;;;;;;;9.38;5.80;;;;;;;22.67;71.37;100371.09;5052368;28;20056;-67
2021/07/04 04:51:23;;;;;;;6.85;5.40;;;;;;;22.74;71.10;100374.66;5058160;28;20135;-67
2021/07/04 04:54:09;;;;;;;10.18;6.28;;;;;;;22.67;71.85;100374.66;5053999;28;20056;-67
2021/07/04 04:56:53;;;;;;;11.85;6.82;;;;;;;22.68;71.90;100365.16;5061267;28;20561;-68
2021/07/04 04:59:39;;;;;;;11.98;5.13;;;;;;;22.93;71.17;100363.03;5073803;28;20040;-67
2021/07/04 05:02:24;;;;;;;11.63;5.28;;;;;;;23.05;70.83;100352.66;5078338;28;20052;-68
2021/07/04 05:05:09;;;;;;;115.40;22.52;;;;;;;23.20;70.00;100363.22;5082131;28;20051;-68
2021/07/04 05:07:54;;;;;;;48.55;11.50;;;;;;;23.34;69.39;100353.97;5076698;28;20036;-68
2021/07/04 05:10:39;;;;;;;22.70;8.35;;;;;;;23.47;69.11;100359.84;5062101;28;20049;-69
2021/07/04 05:13:24;;;;;;;12.32;6.10;;;;;;;23.57;68.82;100367.28;5061032;28;20044;-68
2021/07/04 05:16:09;;;;;;;7.65;5.78;;;;;;;23.49;69.11;100363.78;5067024;28;20051;-68
2021/07/04 05:18:54;;;;;;;8.05;4.75;;;;;;;23.77;67.81;100369.03;5074923;28;20048;-69
2021/07/04 05:21:39;;;;;;;6.60;5.07;;;;;;;23.54;68.96;100371.66;5080763;28;20071;-70
2021/07/04 05:24:25;;;;;;;8.60;5.65;;;;;;;23.54;68.73;100377.22;5079139;28;20043;-68
2021/07/04 05:27:10;;;;;;;13.27;5.80;;;;;;;23.71;68.43;100376.25;5070368;28;20094;-67
2021/07/04 05:29:56;;;;;;;9.45;4.95;;;;;;;23.99;66.74;100379.91;5056183;28;20048;-68
2021/07/04 05:32:43;;;;;;;7.35;3.25;;;;;;;24.11;66.04;100380.16;5060475;28;20071;-69
2021/07/04 05:35:28;;;;;;;4.72;4.13;;;;;;;24.10;66.15;100373.03;5077650;28;20411;-69
2021/07/04 05:38:19;;;;;;;7.43;5.35;;;;;;;24.07;65.77;100378.63;5062812;28;20091;-70
2021/07/04 05:41:05;;;;;;;8.85;5.45;;;;;;;24.03;65.97;100381.44;5061201;28;20067;-69
2021/07/04 05:43:50;;;;;;;6.78;5.50;;;;;;;24.04;66.32;100385.00;5074521;28;20070;-68
2021/07/04 05:46:36;;;;;;;8.63;6.30;;;;;;;24.20;65.64;100385.25;5076167;28;20512;-69
2021/07/04 05:49:21;;;;;;;9.63;6.63;;;;;;;24.15;65.41;100378.13;5060209;28;20052;-68
2021/07/04 05:52:07;;;;;;;8.63;5.85;;;;;;;24.21;65.53;100373.72;5061142;28;20434;-67
2021/07/04 05:54:51;;;;;;;10.02;6.32;;;;;;;24.31;65.29;100374.00;5056297;28;20509;-69
2021/07/04 05:57:37;;;;;;;8.07;6.32;;;;;;;24.23;65.44;100368.53;5058717;28;20052;-68
2021/07/04 06:00:21;;;;;;;5.57;3.50;;;;;;;24.42;64.80;100378.22;5062330;28;20040;-68
2021/07/04 06:03:07;;;;;;;10.27;6.78;;;;;;;24.62;63.75;100376.34;5077034;28;20047;-70
2021/07/04 06:05:52;;;;;;;19.20;8.85;;;;;;;24.67;64.70;100378.66;5077886;28;20056;-70
2021/07/04 06:08:37;;;;;;;7.63;4.30;;;;;;;24.84;62.85;100368.47;5061764;28;20043;-68
2021/07/04 06:11:22;;;;;;;7.30;5.50;;;;;;;25.01;62.04;100375.00;5075779;28;20059;-69
2021/07/04 06:14:07;;;;;;;9.25;5.90;;;;;;;25.15;60.96;100377.53;5054459;28;20044;-68
2021/07/04 06:16:52;;;;;;;9.73;8.13;;;;;;;25.24;61.32;100380.59;5068584;28;20048;-70
2021/07/04 06:19:37;;;;;;;7.35;5.60;;;;;;;25.33;61.25;100383.63;5080242;28;20047;-70
2021/07/04 06:22:22;;;;;;;9.27;7.88;;;;;;;25.42;62.33;100386.63;5074905;28;20059;-69
2021/07/04 06:25:09;;;;;;;15.43;8.02;;;;;;;25.48;61.75;100403.66;5078290;28;20047;-68
2021/07/04 06:27:54;;;;;;;14.82;9.15;;;;;;;25.30;62.46;100409.50;5063580;28;20520;-68
2021/07/04 06:30:39;;;;;;;11.60;10.40;;;;;;;25.31;62.57;100425.00;5078937;28;20039;-68
2021/07/04 06:33:24;;;;;;;15.57;10.50;;;;;;;25.18;61.63;100437.94;5059157;28;20041;-68
2021/07/04 06:36:09;;;;;;;13.45;8.00;;;;;;;25.22;62.39;100421.97;5076672;28;20036;-68
2021/07/04 06:38:55;;;;;;;8.80;6.93;;;;;;;25.19;62.17;100439.53;5071770;28;20055;-68
2021/07/04 06:41:40;;;;;;;11.60;7.25;;;;;;;25.42;61.18;100441.53;5058469;28;20063;-69
2021/07/04 06:44:25;;;;;;;15.43;6.32;;;;;;;25.36;61.30;100444.00;5060090;28;20048;-68
2021/07/04 06:47:13;;;;;;;10.38;7.10;;;;;;;25.29;61.18;100451.72;5054294;28;20047;-69
2021/07/04 06:49:58;;;;;;;9.57;6.55;;;;;;;25.31;60.74;100441.72;5065086;28;20040;-68
2021/07/04 06:52:44;;;;;;;6.32;5.63;;;;;;;25.12;60.42;100436.84;5074246;28;20044;-68
2021/07/04 06:55:29;;;;;;;6.40;5.47;;;;;;;25.06;61.12;100441.31;5060208;28;20048;-68
2021/07/04 06:58:14;;;;;;;7.20;5.70;;;;;;;25.01;61.00;100444.56;5056985;28;20052;-68
2021/07/04 07:00:59;;;;;;;6.00;4.53;;;;;;;25.14;60.33;100442.78;5067245;28;20134;-69
2021/07/04 07:03:44;;;;;;;5.85;5.22;;;;;;;25.02;60.78;100429.44;5054655;28;20056;-67
2021/07/04 07:06:29;;;;;;;5.63;4.32;;;;;;;25.05;60.84;100429.38;5059705;28;20052;-70
2021/07/04 07:09:13;;;;;;;9.88;5.55;;;;;;;25.10;61.24;100430.91;5056551;28;20513;-68
2021/07/04 07:11:58;;;;;;;7.25;5.15;;;;;;;25.02;61.03;100427.44;5052991;28;20052;-69
2021/07/04 07:14:44;;;;;;;6.55;5.05;;;;;;;25.26;60.50;100433.03;5058748;28;20040;-67
2021/07/04 07:17:29;;;;;;;6.15;5.53;;;;;;;25.32;60.76;100434.94;5056863;28;20113;-69
2021/07/04 07:20:18;;;;;;;9.73;5.50;;;;;;;25.28;60.19;100427.84;5058491;28;20044;-68
2021/07/04 07:23:03;;;;;;;11.07;4.78;;;;;;;25.24;59.75;100421.56;5059270;28;20052;-68
2021/07/04 07:25:57;;;;;;;6.68;4.20;;;;;;;25.47;58.80;100421.56;5058558;28;20059;-68
2021/07/04 07:28:42;;;;;;;7.22;4.93;;;;;;;25.54;59.06;100422.25;5053172;28;20052;-68
2021/07/04 07:31:31;;;;;;;6.50;5.03;;;;;;;25.64;59.11;100428.88;5066896;28;20048;-69
2021/07/04 07:34:16;;;;;;;9.25;4.97;;;;;;;25.72;58.83;100426.72;5066295;28;20051;-69
2021/07/04 07:37:02;;;;;;;7.93;3.92;;;;;;;25.89;57.95;100431.19;5062448;28;20059;-69
2021/07/04 07:39:51;;;;;;;10.57;6.40;;;;;;;26.04;59.01;100420.56;5061102;28;20248;-69
2021/07/04 07:42:35;;;;;;;9.25;5.53;;;;;;;25.86;58.47;100410.53;5074359;28;20409;-70
2021/07/04 07:45:20;;;;;;;12.50;5.20;;;;;;;25.84;58.86;100417.75;5067725;28;20055;-69
2021/07/04 07:48:09;;;;;;;6.38;4.93;;;;;;;25.88;58.69;100422.06;5057286;28;20520;-68
2021/07/04 07:51:16;;;;;;;6.28;4.95;;;;;;;25.82;57.92;100417.38;5067344;28;20060;-68
2021/07/04 07:54:02;;;;;;;5.60;3.60;;;;;;;25.67;57.16;100408.50;5057655;28;20043;-70
2021/07/04 07:56:47;;;;;;;3.20;2.25;;;;;;;25.94;56.17;100400.06;5073567;28;20047;-70
2021/07/04 07:59:32;;;;;;;4.72;2.70;;;;;;;26.05;54.59;100392.28;5066617;28;20039;-70
2021/07/04 08:02:17;;;;;;;6.03;2.90;;;;;;;25.98;54.83;100386.84;5056891;28;20056;-71
2021/07/04 08:05:03;;;;;;;5.63;3.33;;;;;;;26.01;55.39;100376.84;5058100;28;20405;-70
2021/07/04 08:07:49;;;;;;;5.72;3.65;;;;;;;25.93;54.96;100378.97;5054789;28;20413;-70
2021/07/04 08:10:35;;;;;;;5.18;3.25;;;;;;;26.07;55.80;100378.69;5051741;28;20048;-70
2021/07/04 08:13:20;;;;;;;4.38;3.00;;;;;;;26.10;54.31;100386.19;5056706;28;20060;-70
2021/07/04 08:16:05;;;;;;;5.45;3.22;;;;;;;26.22;55.14;100385.56;5055252;28;20039;-70
2021/07/04 08:18:51;;;;;;;4.45;3.65;;;;;;;26.26;55.18;100394.63;5055290;28;20068;-69
2021/07/04 08:21:36;;;;;;;5.82;3.72;;;;;;;26.28;54.87;100391.44;5056840;28;20052;-70
2021/07/04 08:24:21;;;;;;;5.32;3.25;;;;;;;26.39;54.14;100387.22;5064615;28;20052;-68
2021/07/04 08:27:06;;;;;;;6.75;3.00;;;;;;;26.39;52.53;100386.41;5065343;28;20437;-69
2021/07/04 08:29:51;;;;;;;5.43;3.55;;;;;;;26.45;52.99;100397.84;5063178;28;20059;-71
2021/07/04 08:32:36;;;;;;;5.78;3.15;;;;;;;26.28;52.51;100391.44;5071700;28;20048;-69
2021/07/04 08:35:21;;;;;;;5.15;3.17;;;;;;;26.46;52.28;100396.66;5055581;28;20060;-69
2021/07/04 08:38:06;;;;;;;5.20;3.13;;;;;;;26.56;52.80;100395.63;5063087;28;20070;-72
2021/07/04 08:40:51;;;;;;;7.55;2.95;;;;;;;26.62;52.97;100400.25;5060274;28;20055;-71
2021/07/04 08:43:37;;;;;;;3.75;2.33;;;;;;;26.67;52.13;100396.16;5063252;28;20538;-71
2021/07/04 08:46:22;;;;;;;7.95;2.50;;;;;;;26.68;51.09;100392.94;5058599;28;20059;-73
2021/07/04 08:49:07;;;;;;;8.30;2.65;;;;;;;26.80;50.45;100388.69;5058110;28;20036;-70
2021/07/04 08:51:52;;;;;;;5.00;2.60;;;;;;;26.81;50.85;100401.44;5061506;28;20436;-69
2021/07/04 08:54:37;;;;;;;3.92;2.30;;;;;;;26.95;50.43;100389.16;5053351;28;20055;-72
2021/07/04 08:57:22;;;;;;;4.05;2.67;;;;;;;26.96;50.12;100387.97;5061781;28;20056;-71
2021/07/04 09:00:08;;;;;;;2.50;1.95;;;;;;;27.11;50.79;100380.81;5058390;28;20047;-70
2021/07/04 09:02:53;;;;;;;9.43;3.03;;;;;;;27.05;51.65;100377.75;5059342;28;20052;-71
2021/07/04 09:05:43;;;;;;;3.08;2.10;;;;;;;27.01;49.08;100381.84;5071750;28;20063;-71
2021/07/04 09:08:28;;;;;;;5.18;2.03;;;;;;;27.03;49.78;100391.34;5067371;28;20059;-69
2021/07/04 09:11:17;;;;;;;5.28;2.63;;;;;;;26.87;51.16;100391.31;5062768;28;20349;-70
2021/07/04 09:14:05;;;;;;;6.05;2.78;;;;;;;27.00;52.01;100397.81;5068370;28;20047;-71
2021/07/04 09:16:50;;;;;;;5.72;3.08;;;;;;;26.91;51.88;100399.66;5068164;28;20052;-70
2021/07/04 09:19:37;;;;;;;4.60;2.67;;;;;;;26.90;51.33;100395.28;5062787;28;20040;-70
2021/07/04 09:22:38;;;;;;;7.55;2.42;;;;;;;26.93;51.52;100391.59;5074769;28;20059;-70
2021/07/04 09:25:29;;;;;;;6.97;3.60;;;;;;;26.86;52.09;100412.06;5072735;28;20047;-70
2021/07/04 09:28:16;;;;;;;5.55;3.00;;;;;;;26.84;53.28;100406.13;5073116;28;20039;-70
2021/07/04 09:31:01;;;;;;;5.28;3.03;;;;;;;26.78;52.94;100403.06;5074593;28;20048;-71
2021/07/04 09:33:46;;;;;;;3.20;2.90;;;;;;;26.77;53.16;100400.69;5072724;28;20047;-72
2021/07/04 09:36:32;;;;;;;4.80;3.30;;;;;;;26.73;53.40;100411.94;5076449;28;20055;-69
2021/07/04 09:39:19;;;;;;;4.35;2.78;;;;;;;26.72;53.12;100415.16;5070799;28;20040;-71
2021/07/04 09:42:09;;;;;;;5.95;3.05;;;;;;;26.68;53.29;100414.47;5072496;28;20071;-71
2021/07/04 09:44:57;;;;;;;6.97;3.15;;;;;;;26.71;53.52;100396.88;5077747;28;20063;-72
2021/07/04 09:47:42;;;;;;;4.78;3.40;;;;;;;26.69;53.29;100402.88;5078177;28;20075;-72
2021/07/04 09:50:27;;;;;;;4.07;3.10;;;;;;;26.59;53.60;100395.53;5075700;28;20401;-71
2021/07/04 09:53:13;;;;;;;4.50;2.58;;;;;;;26.58;53.44;100396.75;5079956;28;20063;-70
2021/07/04 09:56:08;;;;;;;4.72;2.83;;;;;;;26.66;53.37;100400.19;5077881;28;20512;-72
2021/07/04 09:58:57;;;;;;;;;;;;;;;26.63;53.29;100396.25;5074897;28;20052;-69
2021/07/04 10:01:45;;;;;;;5.28;3.30;;;;;;;26.65;52.54;100390.25;5079406;28;19916;-71
2021/07/04 10:04:35;;;;;;;3.90;2.70;;;;;;;26.63;52.94;100373.13;5077351;28;20052;-71
2021/07/04 10:07:31;;;;;;;8.25;2.80;;;;;;;26.67;53.23;100393.34;5074620;28;20417;-72
2021/07/04 10:10:16;;;;;;;4.38;2.85;;;;;;;26.70;52.70;100384.13;5062208;28;20039;-69
2021/07/04 10:13:02;;;;;;;5.57;2.50;;;;;;;26.77;53.10;100389.53;5072123;28;20162;-72
2021/07/04 10:15:47;;;;;;;4.65;2.35;;;;;;;26.58;52.38;100387.59;5077390;28;20401;-72
2021/07/04 10:18:33;;;;;;;6.28;2.80;;;;;;;26.69;52.10;100388.94;5062747;28;20052;-71
2021/07/04 10:21:20;;;;;;;5.25;2.90;;;;;;;26.66;52.40;100381.44;5058581;28;20047;-70
2021/07/04 10:24:05;;;;;;;4.13;2.88;;;;;;;26.67;53.03;100373.84;5057400;28;20056;-72
2021/07/04 10:26:51;;;;;;;6.57;3.33;;;;;;;26.66;52.26;100373.06;5055485;28;20044;-70
2021/07/04 10:29:36;;;;;;;6.50;3.63;;;;;;;26.60;52.77;100374.00;5059671;28;20047;-70
2021/07/04 10:32:21;;;;;;;5.25;3.33;;;;;;;26.65;52.35;100371.50;5060445;28;20055;-70
2021/07/04 10:35:10;;;;;;;3.70;2.50;;;;;;;26.62;52.97;100372.34;5055330;28;20048;-69
2021/07/04 10:38:11;;;;;;;5.95;3.20;;;;;;;26.60;52.97;100357.28;5067654;28;20047;-73
2021/07/04 10:41:29;;;;;;;5.05;3.30;;;;;;;26.67;52.72;100359.88;5060201;28;20048;-75
2021/07/04 10:44:13;;;;;;;6.32;3.50;;;;;;;26.65;53.45;100348.38;5055811;28;20051;-77
2021/07/04 10:46:59;;;;;;;5.95;3.45;;;;;;;26.71;52.63;100346.66;5062854;28;20051;-74
2021/07/04 10:49:53;;;;;;;7.25;3.60;;;;;;;26.65;52.46;100337.22;5072382;28;20044;-72
2021/07/04 10:52:41;;;;;;;5.88;3.33;;;;;;;26.71;53.01;100332.72;5060954;28;20064;-72
2021/07/04 10:55:32;;;;;;;6.20;3.53;;;;;;;26.64;52.91;100335.66;5057994;28;20047;-71
2021/07/04 10:58:17;;;;;;;6.78;3.80;;;;;;;26.62;53.48;100326.91;5073557;28;20052;-71
2021/07/04 11:01:02;;;;;;;6.25;3.97;;;;;;;26.62;53.00;100330.50;5072561;28;20048;-72
2021/07/04 11:03:47;;;;;;;7.80;4.82;;;;;;;26.61;53.06;100325.38;5072630;28;20048;-73
2021/07/04 11:07:00;;;;;;;5.22;3.35;;;;;;;26.61;52.42;100325.38;5059950;28;20056;-73
2021/07/04 11:09:51;;;;;;;4.65;3.05;;;;;;;26.59;52.99;100322.22;5059654;28;20505;-74
2021/07/04 11:12:36;;;;;;;5.70;3.30;;;;;;;26.55;53.14;100313.16;5067729;28;20059;-73
2021/07/04 11:15:21;;;;;;;5.97;3.55;;;;;;;26.56;52.81;100320.31;5064015;28;20053;-73
2021/07/04 11:18:12;;;;;;;6.28;3.40;;;;;;;26.59;53.20;100313.84;5062161;28;20509;-73
2021/07/04 11:20:57;;;;;;;5.57;3.58;;;;;;;26.58;52.98;100323.44;5059228;28;20513;-72
2021/07/04 11:23:42;;;;;;;6.70;3.17;;;;;;;26.63;52.67;100312.56;5066153;28;20051;-72
2021/07/04 11:26:27;;;;;;;5.20;3.33;;;;;;;26.62;52.97;100307.41;5056668;28;20059;-73
2021/07/04 11:29:12;;;;;;;4.18;3.30;;;;;;;26.61;52.02;100308.63;5059284;28;20044;-72
2021/07/04 11:32:23;;;;;;;7.60;3.10;;;;;;;26.59;51.60;100302.69;5067282;28;20508;-71
2021/07/04 11:35:09;;;;;;;8.50;3.95;;;;;;;26.56;52.02;100298.00;5073326;28;20055;-73
2021/07/04 11:37:55;;;;;;;3.75;3.10;;;;;;;26.56;52.14;100298.00;5053058;28;20056;-73
2021/07/04 11:40:41;;;;;;;6.60;3.10;;;;;;;26.58;52.31;100287.97;5057004;28;20043;-73
2021/07/04 11:43:28;;;;;;;7.28;3.50;;;;;;;26.51;52.50;100290.94;5056289;28;20069;-72
2021/07/04 11:46:16;;;;;;;6.10;3.80;;;;;;;26.60;52.41;100288.31;5054361;28;20052;-74
2021/07/04 11:49:08;;;;;;;4.97;3.53;;;;;;;26.58;52.31;100271.22;5053412;28;20056;-73
2021/07/04 11:51:55;;;;;;;6.00;3.78;;;;;;;26.56;52.50;100281.25;5061529;28;20044;-73
2021/07/04 11:54:41;;;;;;;4.85;3.55;;;;;;;26.58;52.09;100278.81;5053904;28;20056;-73
2021/07/04 11:57:30;;;;;;;9.93;3.50;;;;;;;26.65;51.86;100276.66;5056386;28;20048;-74
2021/07/04 12:00:15;;;;;;;5.35;3.33;;;;;;;26.64;51.36;100260.34;5063707;28;20607;-71
2021/07/04 12:03:00;;;;;;;4.97;3.53;;;;;;;26.61;51.94;100252.84;5062141;28;20401;-72
2021/07/04 12:05:44;;;;;;;7.75;3.20;;;;;;;26.65;51.74;100259.13;5065331;28;20040;-72
2021/07/04 12:08:30;;;;;;;4.85;3.15;;;;;;;26.66;51.18;100257.91;5061060;28;20040;-71
2021/07/04 12:11:14;;;;;;;8.27;3.90;;;;;;;26.62;51.99;100246.81;5060243;28;20051;-72
2021/07/04 12:14:00;;;;;;;5.20;2.72;;;;;;;26.74;52.24;100245.34;5063263;28;20052;-72
2021/07/04 12:16:44;;;;;;;5.80;3.38;;;;;;;26.76;52.44;100248.50;5061898;28;20047;-73
2021/07/04 12:19:35;;;;;;;10.50;3.60;;;;;;;26.76;51.83;100242.91;5062502;28;20051;-72
2021/07/04 12:22:22;;;;;;;6.38;3.38;;;;;;;26.75;52.17;100244.91;5065295;28;20064;-72
2021/07/04 12:25:19;;;;;;;4.80;3.20;;;;;;;26.74;51.56;100245.34;5063227;28;20044;-73
2021/07/04 12:28:13;;;;;;;4.00;2.63;;;;;;;26.74;51.83;100242.53;5063660;28;20047;-73
2021/07/04 12:30:58;;;;;;;3.95;3.10;;;;;;;26.71;52.19;100237.84;5065643;28;20398;-73
2021/07/04 12:33:43;;;;;;;7.32;4.20;;;;;;;26.74;52.67;100240.53;5065104;28;20051;-74
2021/07/04 12:36:29;;;;;;;6.03;3.97;;;;;;;26.69;52.37;100240.28;5068775;28;20075;-73
2021/07/04 12:39:14;;;;;;;4.93;4.05;;;;;;;26.63;53.00;100228.88;5066910;28;20052;-73
2021/07/04 12:41:59;;;;;;;8.07;4.60;;;;;;;26.67;54.01;100226.75;5064056;28;20044;-73
2021/07/04 12:45:20;;;;;;;5.95;4.70;;;;;;;26.55;53.36;100223.91;5063079;28;20056;-73
2021/07/04 12:48:06;;;;;;;5.38;4.43;;;;;;;26.54;53.50;100220.31;5061689;28;20040;-73
2021/07/04 12:50:56;;;;;;;8.82;5.03;;;;;;;26.52;53.87;100213.59;5064581;28;20044;-73
2021/07/04 12:53:47;;;;;;;5.18;4.32;;;;;;;26.48;53.98;100210.13;5063756;28;20036;-74